createdAt,value
2022-10-07T00:00:59.812Z,6.20
2022-10-07T00:03:28.454Z,6.03
2022-10-07T00:06:02.607Z,10.52
2022-10-07T00:08:30.285Z,6.78
2022-10-07T00:10:58.031Z,5.38
2022-10-07T00:13:25.143Z,6.28
2022-10-07T00:15:52.218Z,9.60
2022-10-07T00:18:19.313Z,8.70
2022-10-07T00:20:46.457Z,8.70
2022-10-07T00:23:13.576Z,6.28
2022-10-07T00:25:40.629Z,16.92
2022-10-07T00:28:07.846Z,5.72
2022-10-07T00:30:34.963Z,5.90
2022-10-07T00:33:02.037Z,11.45
2022-10-07T00:35:29.091Z,6.88
2022-10-07T00:37:56.016Z,7.20
2022-10-07T00:40:23.012Z,4.63
2022-10-07T00:42:50.006Z,6.53
2022-10-07T00:45:19.585Z,7.70
2022-10-07T00:47:50.292Z,10.50
2022-10-07T00:50:29.605Z,7.65
2022-10-07T00:53:02.459Z,6.03
2022-10-07T00:55:31.611Z,5.68
2022-10-07T00:58:03.580Z,8.05
2022-10-07T01:00:31.473Z,5.82
2022-10-07T01:02:59.483Z,8.00
2022-10-07T01:05:27.045Z,6.97
2022-10-07T01:07:59.094Z,5.45
2022-10-07T01:10:50.477Z,6.88
2022-10-07T01:13:23.064Z,6.50
2022-10-07T01:16:20.496Z,9.77
2022-10-07T01:19:05.209Z,6.03
2022-10-07T01:21:41.133Z,6.97
2022-10-07T01:24:33.501Z,6.55
2022-10-07T01:27:11.827Z,5.75
2022-10-07T01:29:43.612Z,7.75
2022-10-07T01:32:22.238Z,7.65
2022-10-07T01:34:52.020Z,7.53
2022-10-07T01:37:22.248Z,7.35
2022-10-07T01:39:54.353Z,5.90
2022-10-07T01:42:21.903Z,7.47
2022-10-07T01:44:52.588Z,6.00
2022-10-07T01:47:19.657Z,7.35
2022-10-07T01:49:46.618Z,6.28
2022-10-07T01:52:43.872Z,6.38
2022-10-07T01:55:19.772Z,6.03
2022-10-07T01:58:13.522Z,6.07
2022-10-07T02:00:50.458Z,7.35
2022-10-07T02:03:35.987Z,10.27
2022-10-07T02:06:40.681Z,6.13
2022-10-07T02:09:22.887Z,7.60
2022-10-07T02:11:56.923Z,5.80
2022-10-07T02:14:44.772Z,5.68
2022-10-07T02:17:18.317Z,6.43
2022-10-07T02:19:53.603Z,5.85
2022-10-07T02:22:26.165Z,5.38
2022-10-07T02:24:59.333Z,6.00
2022-10-07T02:27:33.863Z,6.70
2022-10-07T02:30:08.556Z,7.20
2022-10-07T02:32:37.891Z,6.28
2022-10-07T02:35:14.174Z,9.25
2022-10-07T02:37:44.403Z,10.30
2022-10-07T02:40:12.620Z,9.38
2022-10-07T02:42:45.363Z,7.28
2022-10-07T02:45:28.473Z,7.75
2022-10-07T02:48:04.401Z,8.57
2022-10-07T02:50:43.203Z,7.75
2022-10-07T02:53:13.766Z,6.93
2022-10-07T02:55:43.627Z,10.18
2022-10-07T02:58:12.799Z,8.60
2022-10-07T03:00:44.778Z,10.55
2022-10-07T03:03:11.904Z,10.48
2022-10-07T03:05:39.284Z,9.15
2022-10-07T03:08:09.620Z,10.85
2022-10-07T03:10:37.503Z,14.05
2022-10-07T03:13:06.197Z,13.63
2022-10-07T03:15:41.930Z,13.05
2022-10-07T03:18:26.657Z,12.90
2022-10-07T03:20:56.017Z,13.80
2022-10-07T03:23:27.270Z,16.52
2022-10-07T03:25:55.894Z,16.67
2022-10-07T03:28:25.123Z,17.73
2022-10-07T03:30:52.880Z,13.85
2022-10-07T03:33:24.386Z,16.02
2022-10-07T03:35:51.456Z,15.13
2022-10-07T03:38:18.373Z,14.50
2022-10-07T03:40:45.762Z,12.02
2022-10-07T03:43:12.796Z,17.17
2022-10-07T03:45:49.769Z,23.73
2022-10-07T03:48:17.382Z,17.42
2022-10-07T03:50:56.801Z,17.90
2022-10-07T03:53:25.994Z,15.98
2022-10-07T03:55:53.467Z,14.90
2022-10-07T03:58:20.564Z,13.35
2022-10-07T04:00:48.254Z,13.05
2022-10-07T04:03:18.853Z,16.30
2022-10-07T04:06:00.175Z,12.85
2022-10-07T04:08:29.261Z,12.32
2022-10-07T04:11:00.170Z,13.68
2022-10-07T04:13:27.342Z,15.52
2022-10-07T04:15:55.679Z,12.88
2022-10-07T04:18:23.389Z,12.05
2022-10-07T04:20:50.430Z,13.70
2022-10-07T04:23:17.583Z,15.05
2022-10-07T04:25:46.012Z,15.85
2022-10-07T04:28:20.391Z,13.90
2022-10-07T04:30:51.626Z,15.88
2022-10-07T04:33:20.815Z,15.45
2022-10-07T04:35:50.342Z,18.48
2022-10-07T04:38:19.020Z,21.13
2022-10-07T04:40:48.554Z,15.77
2022-10-07T04:43:19.531Z,15.73
2022-10-07T04:45:47.903Z,15.35
2022-10-07T04:48:18.157Z,17.23
2022-10-07T04:50:45.871Z,20.58
2022-10-07T04:53:15.102Z,16.48
2022-10-07T04:55:44.419Z,15.13
2022-10-07T04:58:11.634Z,18.52
2022-10-07T05:00:47.492Z,16.95
2022-10-07T05:03:16.753Z,15.27
2022-10-07T05:05:46.336Z,17.65
2022-10-07T05:08:15.008Z,20.13
2022-10-07T05:10:43.506Z,19.27
2022-10-07T05:13:13.035Z,17.13
2022-10-07T05:15:54.704Z,16.30
2022-10-07T05:18:23.088Z,20.00
2022-10-07T05:20:50.714Z,19.08
2022-10-07T05:23:24.342Z,26.63
2022-10-07T05:26:02.193Z,18.42
2022-10-07T05:28:29.581Z,22.42
2022-10-07T05:31:23.043Z,23.40
2022-10-07T05:33:50.211Z,19.92
2022-10-07T05:36:17.271Z,18.67
2022-10-07T05:38:44.624Z,20.80
2022-10-07T05:41:12.999Z,20.88
2022-10-07T05:43:45.209Z,20.20
2022-10-07T05:46:15.433Z,21.08
2022-10-07T05:48:46.514Z,22.50
2022-10-07T05:51:14.380Z,25.38
2022-10-07T05:53:43.333Z,22.40
2022-10-07T05:56:12.886Z,20.80
2022-10-07T05:58:39.888Z,25.02
2022-10-07T06:01:14.190Z,23.48
2022-10-07T06:03:42.509Z,24.38
2022-10-07T06:06:09.964Z,39.42
2022-10-07T06:08:37.858Z,29.98
2022-10-07T06:11:24.897Z,27.77
2022-10-07T06:13:55.442Z,24.77
2022-10-07T06:16:23.564Z,25.17
2022-10-07T06:18:52.751Z,25.75
2022-10-07T06:21:21.680Z,26.35
2022-10-07T06:23:52.240Z,32.78
2022-10-07T06:26:20.236Z,27.63
2022-10-07T06:28:47.428Z,27.42
2022-10-07T06:31:23.737Z,28.33
2022-10-07T06:33:51.395Z,28.85
2022-10-07T06:36:19.034Z,28.13
2022-10-07T06:38:47.693Z,37.33
2022-10-07T06:41:16.132Z,26.48
2022-10-07T06:43:43.516Z,29.48
2022-10-07T06:46:14.555Z,25.95
2022-10-07T06:48:43.153Z,26.63
2022-10-07T06:51:14.385Z,24.92
2022-10-07T06:53:41.678Z,27.63
2022-10-07T06:56:09.374Z,24.73
2022-10-07T06:58:37.084Z,28.30
2022-10-07T07:01:05.623Z,32.40
2022-10-07T07:03:33.103Z,31.77
2022-10-07T07:06:00.143Z,26.80
2022-10-07T07:08:31.200Z,22.20
2022-10-07T07:11:06.282Z,23.50
2022-10-07T07:13:36.282Z,29.67
2022-10-07T07:16:03.338Z,22.52
2022-10-07T07:18:30.352Z,25.75
2022-10-07T07:21:03.186Z,28.08
2022-10-07T07:23:30.247Z,27.52
2022-10-07T07:25:57.251Z,24.27
2022-10-07T07:28:24.271Z,28.88
2022-10-07T07:30:51.388Z,28.33
2022-10-07T07:33:18.389Z,28.23
2022-10-07T07:35:45.473Z,30.38
2022-10-07T07:38:12.476Z,27.73
2022-10-07T07:40:40.141Z,28.95
2022-10-07T07:43:08.904Z,28.40
2022-10-07T07:45:37.261Z,27.73
2022-10-07T07:48:05.188Z,28.63
2022-10-07T07:50:32.290Z,23.63
2022-10-07T07:53:02.327Z,25.35
2022-10-07T07:55:29.357Z,25.90
2022-10-07T07:57:56.754Z,28.60
2022-10-07T08:00:23.842Z,25.40
2022-10-07T08:02:51.009Z,26.48
2022-10-07T08:05:23.478Z,24.23
2022-10-07T08:07:52.800Z,26.93
2022-10-07T08:10:19.808Z,27.43
2022-10-07T08:12:46.930Z,27.38
2022-10-07T08:15:15.475Z,28.20
2022-10-07T08:17:42.724Z,31.20
2022-10-07T08:20:11.193Z,32.22
2022-10-07T08:22:38.192Z,30.90
2022-10-07T08:25:05.867Z,27.27
2022-10-07T08:27:33.838Z,26.20
2022-10-07T08:30:00.879Z,28.03
2022-10-07T08:32:27.958Z,28.80
2022-10-07T08:34:55.026Z,29.90
2022-10-07T08:37:22.036Z,27.47
2022-10-07T08:39:49.070Z,28.33
2022-10-07T08:42:27.960Z,30.97
2022-10-07T08:44:56.565Z,29.00
2022-10-07T08:47:47.512Z,36.93
2022-10-07T08:50:25.671Z,28.03
2022-10-07T08:53:00.286Z,27.10
2022-10-07T08:55:33.405Z,28.77
2022-10-07T08:58:09.324Z,35.73
2022-10-07T09:01:04.071Z,23.57
2022-10-07T09:03:45.991Z,26.90
2022-10-07T09:06:19.766Z,23.13
2022-10-07T09:08:52.556Z,27.80
2022-10-07T09:11:26.135Z,22.87
2022-10-07T09:14:01.539Z,28.00
2022-10-07T09:16:39.096Z,22.60
2022-10-07T09:19:11.712Z,23.20
2022-10-07T09:21:50.575Z,21.80
2022-10-07T09:24:20.709Z,21.67
2022-10-07T09:26:49.116Z,18.83
2022-10-07T09:29:20.946Z,19.30
2022-10-07T09:31:49.641Z,18.07
2022-10-07T09:34:23.528Z,18.73
2022-10-07T09:37:09.296Z,21.30
2022-10-07T09:39:36.391Z,18.90
2022-10-07T09:42:06.953Z,18.53
2022-10-07T09:44:34.951Z,19.13
2022-10-07T09:47:19.465Z,25.40
2022-10-07T09:49:51.941Z,19.53
2022-10-07T09:52:25.987Z,18.13
2022-10-07T09:54:56.368Z,15.73
2022-10-07T09:57:28.819Z,14.93
2022-10-07T10:00:14.129Z,18.67
2022-10-07T10:02:51.085Z,16.73
2022-10-07T10:05:29.596Z,16.93
2022-10-07T10:08:02.661Z,16.40
2022-10-07T10:10:35.368Z,14.30
2022-10-07T10:13:04.817Z,15.43
2022-10-07T10:15:42.920Z,14.10
2022-10-07T10:18:33.662Z,14.63
2022-10-07T10:21:26.566Z,13.37
2022-10-07T10:23:57.470Z,12.17
2022-10-07T10:26:48.157Z,18.37
2022-10-07T10:29:18.247Z,11.53
2022-10-07T10:32:07.718Z,11.70
2022-10-07T10:35:14.131Z,11.07
2022-10-07T10:37:41.124Z,13.50
2022-10-07T10:40:58.919Z,14.93
2022-10-07T10:43:25.903Z,9.50
2022-10-07T10:46:09.001Z,11.03
2022-10-07T10:48:47.715Z,12.93
2022-10-07T10:51:35.193Z,10.17
2022-10-07T10:54:17.985Z,10.50
2022-10-07T10:56:48.614Z,14.90
2022-10-07T10:59:24.270Z,12.40
2022-10-07T11:02:13.122Z,11.20
2022-10-07T11:04:54.346Z,12.50
2022-10-07T11:07:36.980Z,11.77
2022-10-07T11:10:17.436Z,12.37
2022-10-07T11:12:48.753Z,13.13
2022-10-07T11:15:21.778Z,12.30
2022-10-07T11:17:52.003Z,11.47
2022-10-07T11:20:22.085Z,12.30
2022-10-07T11:22:56.829Z,13.30
2022-10-07T11:25:35.130Z,13.50
2022-10-07T11:28:26.249Z,9.93
2022-10-07T11:31:12.267Z,10.80
2022-10-07T11:33:39.240Z,10.57
2022-10-07T11:36:29.710Z,10.47
2022-10-07T11:38:56.711Z,7.90
2022-10-07T11:41:29.690Z,9.33
2022-10-07T11:44:02.378Z,9.37
2022-10-07T11:46:30.079Z,13.83
2022-10-07T11:49:07.065Z,11.03
2022-10-07T11:51:57.819Z,11.63
2022-10-07T11:54:27.992Z,9.40
2022-10-07T11:56:59.539Z,8.00
2022-10-07T11:59:59.943Z,8.33
2022-10-07T12:02:29.913Z,8.93
2022-10-07T12:05:01.912Z,9.83
2022-10-07T12:07:45.228Z,8.00
2022-10-07T12:10:28.674Z,8.00
2022-10-07T12:12:59.691Z,9.53
2022-10-07T12:15:39.844Z,8.07
2022-10-07T12:18:06.851Z,11.00
2022-10-07T12:20:43.058Z,7.90
2022-10-07T12:23:19.831Z,7.57
2022-10-07T12:25:47.896Z,7.63
2022-10-07T12:28:23.762Z,11.43
2022-10-07T12:30:53.979Z,9.80
2022-10-07T12:33:52.288Z,9.60
2022-10-07T12:36:19.720Z,10.20
2022-10-07T12:39:12.636Z,7.97
2022-10-07T12:41:40.915Z,9.57
2022-10-07T12:44:30.509Z,8.60
2022-10-07T12:47:21.106Z,13.27
2022-10-07T12:50:07.211Z,16.67
2022-10-07T12:52:53.427Z,7.33
2022-10-07T12:55:39.157Z,11.40
2022-10-07T12:58:39.225Z,8.53
2022-10-07T13:01:18.321Z,9.60
2022-10-07T13:04:14.440Z,11.80
2022-10-07T13:07:20.526Z,8.10
2022-10-07T13:10:05.927Z,7.87
2022-10-07T13:12:57.232Z,11.27
2022-10-07T13:15:42.929Z,7.77
2022-10-07T13:18:37.637Z,7.23
2022-10-07T13:21:16.561Z,7.70
2022-10-07T13:23:55.381Z,7.93
2022-10-07T13:26:25.145Z,6.47
2022-10-07T13:29:00.818Z,8.03
2022-10-07T13:31:30.708Z,6.97
2022-10-07T13:33:59.933Z,5.70
2022-10-07T13:36:33.118Z,5.70
2022-10-07T13:39:20.609Z,5.80
2022-10-07T13:41:51.307Z,6.37
2022-10-07T13:44:20.799Z,6.90
2022-10-07T13:47:00.284Z,6.23
2022-10-07T13:49:33.843Z,5.47
2022-10-07T13:52:05.162Z,6.13
2022-10-07T13:54:33.988Z,5.90
2022-10-07T13:57:02.587Z,9.50
2022-10-07T13:59:30.134Z,5.07
2022-10-07T14:01:59.053Z,6.30
2022-10-07T14:04:33.538Z,4.90
2022-10-07T14:07:19.606Z,5.70
2022-10-07T14:09:49.876Z,6.90
2022-10-07T14:12:39.539Z,7.43
2022-10-07T14:15:22.506Z,7.73
2022-10-07T14:17:56.018Z,5.37
2022-10-07T14:20:33.192Z,8.80
2022-10-07T14:23:04.678Z,5.50
2022-10-07T14:25:49.641Z,5.60
2022-10-07T14:28:21.175Z,6.00
2022-10-07T14:31:26.736Z,6.03
2022-10-07T14:34:33.901Z,6.57
2022-10-07T14:37:09.761Z,5.20
2022-10-07T14:39:45.502Z,7.07
2022-10-07T14:42:18.121Z,6.90
2022-10-07T14:44:45.406Z,5.77
2022-10-07T14:47:20.485Z,10.90
2022-10-07T14:49:48.540Z,6.30
2022-10-07T14:52:24.075Z,6.70
2022-10-07T14:54:52.947Z,7.93
2022-10-07T14:57:19.937Z,7.70
2022-10-07T14:59:50.290Z,6.67
2022-10-07T15:02:17.702Z,6.53
2022-10-07T15:04:45.966Z,8.67
2022-10-07T15:07:14.969Z,5.53
2022-10-07T15:09:43.671Z,7.50
2022-10-07T15:12:12.984Z,7.40
2022-10-07T15:14:39.968Z,9.23
2022-10-07T15:17:07.370Z,7.53
2022-10-07T15:19:34.844Z,6.07
2022-10-07T15:22:01.825Z,6.17
2022-10-07T15:24:30.382Z,7.23
2022-10-07T15:26:58.163Z,6.53
2022-10-07T15:29:25.225Z,6.83
2022-10-07T15:31:52.869Z,7.40
2022-10-07T15:34:20.112Z,8.33
2022-10-07T15:36:48.238Z,7.13
2022-10-07T15:39:15.790Z,6.60
2022-10-07T15:41:44.279Z,5.83
2022-10-07T15:44:17.122Z,6.20
2022-10-07T15:46:47.919Z,7.57
2022-10-07T15:49:18.910Z,11.60
2022-10-07T15:51:49.429Z,5.63
2022-10-07T15:54:16.941Z,7.07
2022-10-07T15:56:45.340Z,8.23
2022-10-07T15:59:12.467Z,6.40
2022-10-07T16:01:39.557Z,5.33
2022-10-07T16:04:10.738Z,5.90
2022-10-07T16:06:38.900Z,6.77
2022-10-07T16:09:06.461Z,8.27
2022-10-07T16:11:34.745Z,7.50
2022-10-07T16:14:02.616Z,6.53
2022-10-07T16:16:34.031Z,7.27
2022-10-07T16:19:01.318Z,6.87
2022-10-07T16:21:33.911Z,6.63
2022-10-07T16:24:06.776Z,6.70
2022-10-07T16:26:36.013Z,10.60
2022-10-07T16:29:24.009Z,8.83
2022-10-07T16:31:57.966Z,9.50
2022-10-07T16:34:27.717Z,6.27
2022-10-07T16:36:56.095Z,8.40
2022-10-07T16:39:23.155Z,8.90
2022-10-07T16:41:55.148Z,13.80
2022-10-07T16:44:22.564Z,7.80
2022-10-07T16:46:50.369Z,5.83
2022-10-07T16:49:18.556Z,6.77
2022-10-07T16:51:46.825Z,8.57
2022-10-07T16:54:16.514Z,7.53
2022-10-07T16:56:47.149Z,7.10
2022-10-07T16:59:23.015Z,7.13
2022-10-07T17:01:53.178Z,11.20
2022-10-07T17:04:20.559Z,6.63
2022-10-07T17:06:47.663Z,8.53
2022-10-07T17:09:15.548Z,8.90
2022-10-07T17:11:42.788Z,9.20
2022-10-07T17:14:18.223Z,10.80
2022-10-07T17:16:48.346Z,9.30
2022-10-07T17:19:17.926Z,8.10
2022-10-07T17:21:47.873Z,9.00
2022-10-07T17:24:16.218Z,11.27
2022-10-07T17:26:44.798Z,9.33
2022-10-07T17:29:13.325Z,9.53
2022-10-07T17:31:43.627Z,15.70
2022-10-07T17:34:11.979Z,8.83
2022-10-07T17:36:39.750Z,9.10
2022-10-07T17:39:07.775Z,11.93
2022-10-07T17:41:37.622Z,9.93
2022-10-07T17:44:10.613Z,8.97
2022-10-07T17:46:39.455Z,8.97
2022-10-07T17:49:08.902Z,9.43
2022-10-07T17:51:37.672Z,9.40
2022-10-07T17:54:06.531Z,8.77
2022-10-07T17:56:35.063Z,14.00
2022-10-07T17:59:02.994Z,12.23
2022-10-07T18:01:34.274Z,12.00
2022-10-07T18:04:10.879Z,9.17
2022-10-07T18:06:40.111Z,11.00
2022-10-07T18:09:09.337Z,8.60
2022-10-07T18:11:55.980Z,17.43
2022-10-07T18:14:41.811Z,9.90
2022-10-07T18:17:10.443Z,13.20
2022-10-07T18:19:38.024Z,11.27
2022-10-07T18:22:05.358Z,10.40
2022-10-07T18:24:33.214Z,10.80
2022-10-07T18:27:01.999Z,9.80
2022-10-07T18:29:34.534Z,9.67
2022-10-07T18:32:02.264Z,9.97
2022-10-07T18:34:29.685Z,10.37
2022-10-07T18:36:57.439Z,9.57
2022-10-07T18:39:29.936Z,17.03
2022-10-07T18:41:58.800Z,11.97
2022-10-07T18:44:27.016Z,11.00
2022-10-07T18:46:54.760Z,8.97
2022-10-07T18:49:22.452Z,11.33
2022-10-07T18:51:51.273Z,9.87
2022-10-07T18:54:22.919Z,13.43
2022-10-07T18:56:52.283Z,10.73
2022-10-07T18:59:20.770Z,10.60
2022-10-07T19:01:50.960Z,12.37
2022-10-07T19:04:23.398Z,10.10
2022-10-07T19:06:50.842Z,12.07
2022-10-07T19:09:21.980Z,10.67
2022-10-07T19:11:50.784Z,11.20
2022-10-07T19:14:19.171Z,10.30
2022-10-07T19:16:52.374Z,10.80
2022-10-07T19:19:24.620Z,9.47
2022-10-07T19:21:54.391Z,10.03
2022-10-07T19:24:45.325Z,9.53
2022-10-07T19:27:13.309Z,10.33
2022-10-07T19:29:40.372Z,9.70
2022-10-07T19:32:08.829Z,22.73
2022-10-07T19:34:36.913Z,12.27
2022-10-07T19:37:04.620Z,10.63
2022-10-07T19:39:32.555Z,11.63
2022-10-07T19:42:00.282Z,11.37
2022-10-07T19:44:27.401Z,14.57
2022-10-07T19:46:54.715Z,12.83
2022-10-07T19:49:23.073Z,12.00
2022-10-07T19:51:52.222Z,11.90
2022-10-07T19:54:19.877Z,15.40
2022-10-07T19:56:47.401Z,11.80
2022-10-07T19:59:15.162Z,11.40
2022-10-07T20:01:44.166Z,10.57
2022-10-07T20:04:19.482Z,11.00
2022-10-07T20:06:48.092Z,10.93
2022-10-07T20:09:18.901Z,11.53
2022-10-07T20:11:48.925Z,10.70
2022-10-07T20:14:16.501Z,11.90
2022-10-07T20:16:43.873Z,11.20
2022-10-07T20:19:16.569Z,11.00
2022-10-07T20:21:43.589Z,14.13
2022-10-07T20:24:14.642Z,12.80
2022-10-07T20:26:42.924Z,11.93
2022-10-07T20:29:12.000Z,12.97
2022-10-07T20:31:41.255Z,12.40
2022-10-07T20:34:13.277Z,12.20
2022-10-07T20:36:41.616Z,12.70
2022-10-07T20:39:37.230Z,13.20
2022-10-07T20:42:25.820Z,11.60
2022-10-07T20:44:53.708Z,16.05
2022-10-07T20:47:22.857Z,13.00
2022-10-07T20:49:51.700Z,13.00
2022-10-07T20:52:21.492Z,13.35
2022-10-07T20:54:49.705Z,12.75
2022-10-07T20:57:19.573Z,15.50
2022-10-07T20:59:46.588Z,14.02
2022-10-07T21:02:15.859Z,13.27
2022-10-07T21:04:43.065Z,14.13
2022-10-07T21:07:10.428Z,14.32
2022-10-07T21:09:37.431Z,14.60
2022-10-07T21:12:07.736Z,12.93
2022-10-07T21:14:38.013Z,12.82
2022-10-07T21:17:06.576Z,15.90
2022-10-07T21:19:36.248Z,13.52
2022-10-07T21:22:05.135Z,15.02
2022-10-07T21:24:36.289Z,13.02
2022-10-07T21:27:04.917Z,14.88
2022-10-07T21:29:33.205Z,14.32
2022-10-07T21:32:02.137Z,14.43
2022-10-07T21:34:30.489Z,13.82
2022-10-07T21:36:57.810Z,13.52
2022-10-07T21:39:26.372Z,13.43
2022-10-07T21:41:53.564Z,14.88
2022-10-07T21:44:20.887Z,14.27
2022-10-07T21:46:47.973Z,15.48
2022-10-07T21:49:15.730Z,13.68
2022-10-07T21:51:43.329Z,14.18
2022-10-07T21:54:15.423Z,15.18
2022-10-07T21:56:46.216Z,18.27
2022-10-07T21:59:14.352Z,20.52
2022-10-07T22:01:42.772Z,15.27
2022-10-07T22:04:17.294Z,18.80
2022-10-07T22:07:03.347Z,16.23
2022-10-07T22:09:31.810Z,16.45
2022-10-07T22:11:58.828Z,15.10
2022-10-07T22:14:25.923Z,15.00
2022-10-07T22:16:53.350Z,15.50
2022-10-07T22:19:20.284Z,14.45
2022-10-07T22:21:47.254Z,15.85
2022-10-07T22:24:15.022Z,14.68
2022-10-07T22:26:46.140Z,15.15
2022-10-07T22:29:16.749Z,16.00
2022-10-07T22:31:44.409Z,16.98
2022-10-07T22:34:30.301Z,15.18
2022-10-07T22:37:00.097Z,15.43
2022-10-07T22:39:28.876Z,17.83
2022-10-07T22:41:56.823Z,17.70
2022-10-07T22:44:25.431Z,15.85
2022-10-07T22:46:53.225Z,17.52
2022-10-07T22:49:20.291Z,19.17
2022-10-07T22:51:47.476Z,14.88
2022-10-07T22:54:14.996Z,16.02
2022-10-07T22:56:42.119Z,15.55
2022-10-07T22:59:09.140Z,15.38
2022-10-07T23:01:36.731Z,16.60
2022-10-07T23:04:04.930Z,17.83
2022-10-07T23:06:35.020Z,15.98
2022-10-07T23:09:03.995Z,16.58
2022-10-07T23:11:31.419Z,15.40
2022-10-07T23:13:58.568Z,15.02
2022-10-07T23:16:29.720Z,16.73
2022-10-07T23:18:58.901Z,17.08
2022-10-07T23:21:29.231Z,16.20
2022-10-07T23:24:05.923Z,15.45
2022-10-07T23:26:34.453Z,16.77
2022-10-07T23:29:04.950Z,19.08
2022-10-07T23:31:32.854Z,17.00
2022-10-07T23:34:01.413Z,16.35
2022-10-07T23:36:29.497Z,15.90
2022-10-07T23:38:58.236Z,16.33
2022-10-07T23:41:27.565Z,17.02
2022-10-07T23:43:57.208Z,21.55
2022-10-07T23:46:26.596Z,16.88
2022-10-07T23:48:54.653Z,16.23
2022-10-07T23:51:24.901Z,18.00
2022-10-07T23:53:52.166Z,17.55
2022-10-07T23:56:19.220Z,17.10
2022-10-07T23:58:46.440Z,15.95
